createdAt,value
2023-01-20T00:00:10.809Z,48.02
2023-01-20T00:01:10.775Z,48.34
2023-01-20T00:02:10.759Z,48.02
2023-01-20T00:03:10.761Z,48.02
2023-01-20T00:04:10.738Z,48.82
2023-01-20T00:05:10.782Z,50.27
2023-01-20T00:06:10.708Z,49.31
2023-01-20T00:07:10.700Z,49.15
2023-01-20T00:08:10.701Z,48.18
2023-01-20T00:09:10.668Z,48.98
2023-01-20T00:10:10.658Z,48.50
2023-01-20T00:11:10.645Z,49.31
2023-01-20T00:12:10.630Z,48.50
2023-01-20T00:13:10.629Z,49.31
2023-01-20T00:14:10.616Z,50.11
2023-01-20T00:15:10.675Z,49.47
2023-01-20T00:16:10.637Z,48.98
2023-01-20T00:17:10.566Z,48.82
2023-01-20T00:18:10.574Z,48.50
2023-01-20T00:19:10.547Z,48.02
2023-01-20T00:20:10.562Z,56.56
2023-01-20T00:21:10.510Z,48.18
2023-01-20T00:22:10.516Z,49.15
2023-01-20T00:23:10.499Z,48.50
2023-01-20T00:24:10.477Z,49.31
2023-01-20T00:25:10.450Z,49.47
2023-01-20T00:26:10.467Z,48.50
2023-01-20T00:27:10.437Z,48.66
2023-01-20T00:28:10.438Z,48.18
2023-01-20T00:29:10.400Z,47.86
2023-01-20T00:30:10.406Z,47.86
2023-01-20T00:31:10.398Z,48.34
2023-01-20T00:32:10.370Z,48.34
2023-01-20T00:33:10.369Z,48.66
2023-01-20T00:34:10.343Z,48.50
2023-01-20T00:35:10.424Z,48.34
2023-01-20T00:36:10.320Z,48.34
2023-01-20T00:37:10.299Z,47.70
2023-01-20T00:38:10.309Z,47.70
2023-01-20T00:39:10.269Z,48.18
2023-01-20T00:40:10.270Z,47.53
2023-01-20T00:41:10.296Z,47.86
2023-01-20T00:42:10.239Z,48.66
2023-01-20T00:43:10.241Z,48.98
2023-01-20T00:44:10.220Z,49.15
2023-01-20T00:45:10.205Z,48.34
2023-01-20T00:46:10.213Z,47.21
2023-01-20T00:47:10.169Z,47.53
2023-01-20T00:48:10.181Z,47.70
2023-01-20T00:49:10.140Z,47.37
2023-01-20T00:50:10.156Z,48.34
2023-01-20T00:51:10.163Z,48.34
2023-01-20T00:52:10.114Z,48.02
2023-01-20T00:53:10.107Z,47.70
2023-01-20T00:54:10.084Z,48.66
2023-01-20T00:55:10.060Z,48.98
2023-01-20T00:56:10.059Z,48.82
2023-01-20T00:57:10.029Z,47.86
2023-01-20T00:58:10.056Z,50.11
2023-01-20T00:59:10.019Z,48.34
2023-01-20T01:00:10.006Z,48.02
2023-01-20T01:01:10.107Z,49.15
2023-01-20T01:02:10.108Z,47.86
2023-01-20T01:03:09.968Z,48.34
2023-01-20T01:04:09.951Z,47.05
2023-01-20T01:05:09.953Z,46.89
2023-01-20T01:06:09.931Z,47.37
2023-01-20T01:07:09.899Z,47.53
2023-01-20T01:08:09.941Z,47.86
2023-01-20T01:09:09.879Z,48.18
2023-01-20T01:10:09.902Z,48.50
2023-01-20T01:11:09.904Z,48.34
2023-01-20T01:12:09.841Z,48.50
2023-01-20T01:13:09.842Z,48.34
2023-01-20T01:14:09.818Z,48.18
2023-01-20T01:15:09.813Z,47.37
2023-01-20T01:16:09.812Z,48.18
2023-01-20T01:17:09.771Z,48.34
2023-01-20T01:18:09.784Z,47.86
2023-01-20T01:19:09.744Z,48.34
2023-01-20T01:20:09.739Z,48.34
2023-01-20T01:21:09.734Z,49.31
2023-01-20T01:22:09.708Z,48.82
2023-01-20T01:23:09.710Z,48.34
2023-01-20T01:24:09.684Z,48.34
2023-01-20T01:25:09.670Z,47.86
2023-01-20T01:26:09.660Z,48.02
2023-01-20T01:27:09.649Z,48.34
2023-01-20T01:28:09.669Z,48.18
2023-01-20T01:29:09.611Z,47.86
2023-01-20T01:30:09.614Z,47.37
2023-01-20T01:31:09.634Z,48.34
2023-01-20T01:32:09.580Z,48.82
2023-01-20T01:33:09.578Z,48.18
2023-01-20T01:34:09.559Z,48.18
2023-01-20T01:35:09.540Z,46.89
2023-01-20T01:36:09.540Z,47.53
2023-01-20T01:37:09.536Z,47.37
2023-01-20T01:38:09.523Z,48.82
2023-01-20T01:39:09.489Z,48.50
2023-01-20T01:40:09.479Z,47.53
2023-01-20T01:41:09.458Z,47.70
2023-01-20T01:42:09.450Z,47.86
2023-01-20T01:43:09.440Z,47.86
2023-01-20T01:44:09.443Z,47.86
2023-01-20T01:45:09.408Z,48.02
2023-01-20T01:46:09.398Z,48.02
2023-01-20T01:47:09.379Z,48.34
2023-01-20T01:48:09.389Z,47.53
2023-01-20T01:49:09.349Z,48.50
2023-01-20T01:50:09.340Z,48.50
2023-01-20T01:51:09.323Z,47.37
2023-01-20T01:52:09.314Z,48.82
2023-01-20T01:53:09.324Z,48.02
2023-01-20T01:54:09.290Z,47.37
2023-01-20T01:55:09.270Z,47.86
2023-01-20T01:56:09.262Z,48.50
2023-01-20T01:57:09.256Z,48.34
2023-01-20T01:58:09.260Z,48.18
2023-01-20T01:59:09.230Z,48.02
2023-01-20T02:00:09.209Z,48.02
2023-01-20T02:01:09.298Z,47.70
2023-01-20T02:02:09.254Z,47.21
2023-01-20T02:03:09.188Z,47.21
2023-01-20T02:05:22.403Z,47.37
2023-01-20T02:06:19.829Z,47.21
2023-01-20T02:07:19.795Z,48.18
2023-01-20T02:08:19.802Z,47.86
2023-01-20T02:09:19.787Z,47.70
2023-01-20T02:10:19.773Z,48.34
2023-01-20T02:11:19.752Z,48.50
2023-01-20T02:12:19.756Z,48.34
2023-01-20T02:13:19.720Z,47.53
2023-01-20T02:14:19.703Z,48.82
2023-01-20T02:15:19.758Z,47.86
2023-01-20T02:16:19.807Z,47.37
2023-01-20T02:17:19.681Z,48.18
2023-01-20T02:18:19.654Z,47.70
2023-01-20T02:19:19.639Z,47.86
2023-01-20T02:20:19.628Z,48.34
2023-01-20T02:21:19.620Z,48.98
2023-01-20T02:22:19.612Z,48.50
2023-01-20T02:23:19.593Z,48.98
2023-01-20T02:24:19.582Z,48.02
2023-01-20T02:25:19.567Z,48.18
2023-01-20T02:26:19.543Z,47.37
2023-01-20T02:27:19.551Z,47.05
2023-01-20T02:28:19.519Z,47.37
2023-01-20T02:29:19.510Z,47.86
2023-01-20T02:30:19.535Z,48.02
2023-01-20T02:31:19.520Z,48.34
2023-01-20T02:32:19.480Z,47.86
2023-01-20T02:33:26.471Z,47.21
2023-01-20T02:34:19.454Z,47.37
2023-01-20T02:35:19.440Z,47.53
2023-01-20T02:36:19.412Z,47.05
2023-01-20T02:37:19.449Z,49.63
2023-01-20T02:38:19.390Z,48.82
2023-01-20T02:39:27.006Z,48.18
2023-01-20T02:40:20.371Z,48.02
2023-01-20T02:41:19.352Z,48.02
2023-01-20T02:42:19.372Z,47.70
2023-01-20T02:43:19.328Z,47.37
2023-01-20T02:44:19.312Z,48.02
2023-01-20T02:45:19.301Z,48.02
2023-01-20T02:46:19.281Z,48.82
2023-01-20T02:47:19.290Z,48.18
2023-01-20T02:48:19.253Z,48.02
2023-01-20T02:49:19.270Z,47.70
2023-01-20T02:50:19.245Z,47.21
2023-01-20T02:51:19.222Z,47.70
2023-01-20T02:52:19.240Z,47.05
2023-01-20T02:53:19.234Z,47.86
2023-01-20T02:54:19.200Z,47.70
2023-01-20T02:55:19.182Z,48.02
2023-01-20T02:56:19.151Z,48.18
2023-01-20T02:57:19.159Z,49.31
2023-01-20T02:58:19.173Z,49.31
2023-01-20T02:59:19.131Z,47.86
2023-01-20T03:00:19.125Z,47.70
2023-01-20T03:01:19.255Z,47.70
2023-01-20T03:02:19.089Z,48.02
2023-01-20T03:03:19.081Z,48.50
2023-01-20T03:04:19.079Z,48.50
2023-01-20T03:05:19.052Z,49.79
2023-01-20T03:06:19.060Z,49.31
2023-01-20T03:07:19.044Z,48.66
2023-01-20T03:08:19.034Z,48.98
2023-01-20T03:09:18.991Z,48.34
2023-01-20T03:10:19.009Z,48.82
2023-01-20T03:11:18.971Z,48.82
2023-01-20T03:12:18.963Z,48.18
2023-01-20T03:13:18.986Z,48.50
2023-01-20T03:14:18.923Z,47.86
2023-01-20T03:15:18.910Z,47.86
2023-01-20T03:16:18.952Z,47.86
2023-01-20T03:17:18.892Z,48.18
2023-01-20T03:18:18.903Z,48.02
2023-01-20T03:19:20.413Z,48.34
2023-01-20T03:20:18.861Z,48.98
2023-01-20T03:21:18.840Z,48.82
2023-01-20T03:22:18.846Z,49.79
2023-01-20T03:23:18.827Z,48.66
2023-01-20T03:24:18.796Z,49.31
2023-01-20T03:25:18.781Z,48.82
2023-01-20T03:26:18.760Z,48.50
2023-01-20T03:27:18.760Z,48.18
2023-01-20T03:28:18.764Z,47.86
2023-01-20T03:29:18.741Z,48.34
2023-01-20T03:30:18.746Z,49.15
2023-01-20T03:31:18.801Z,48.18
2023-01-20T03:32:18.716Z,47.70
2023-01-20T03:33:18.751Z,48.18
2023-01-20T03:34:18.662Z,48.18
2023-01-20T03:35:18.657Z,48.34
2023-01-20T03:36:18.631Z,48.82
2023-01-20T03:37:18.632Z,48.50
2023-01-20T03:38:18.641Z,50.27
2023-01-20T03:39:18.599Z,48.82
2023-01-20T03:40:18.620Z,47.70
2023-01-20T03:41:18.599Z,48.18
2023-01-20T03:42:18.591Z,48.02
2023-01-20T03:43:18.563Z,49.31
2023-01-20T03:44:18.550Z,48.98
2023-01-20T03:45:18.541Z,49.31
2023-01-20T03:46:18.504Z,48.50
2023-01-20T03:47:18.488Z,48.82
2023-01-20T03:48:18.491Z,48.18
2023-01-20T03:49:18.483Z,48.02
2023-01-20T03:50:18.470Z,48.66
2023-01-20T03:51:18.463Z,48.66
2023-01-20T03:52:18.443Z,48.98
2023-01-20T03:53:18.456Z,49.31
2023-01-20T03:54:18.401Z,48.02
2023-01-20T03:55:18.391Z,48.50
2023-01-20T03:56:18.399Z,48.50
2023-01-20T03:57:18.369Z,48.98
2023-01-20T03:58:18.416Z,48.82
2023-01-20T03:59:18.345Z,49.15
2023-01-20T04:00:18.337Z,49.31
2023-01-20T04:01:19.214Z,48.02
2023-01-20T04:02:18.408Z,48.98
2023-01-20T04:03:18.354Z,48.18
2023-01-20T04:04:18.261Z,48.82
2023-01-20T04:05:18.279Z,48.82
2023-01-20T04:06:18.243Z,54.95
2023-01-20T04:07:18.240Z,49.47
2023-01-20T04:08:18.249Z,49.31
2023-01-20T04:09:18.236Z,49.47
2023-01-20T04:10:18.190Z,49.47
2023-01-20T04:11:18.193Z,49.63
2023-01-20T04:12:18.161Z,49.31
2023-01-20T04:13:18.175Z,48.50
2023-01-20T04:14:18.159Z,48.50
2023-01-20T04:15:18.179Z,48.66
2023-01-20T04:16:18.117Z,50.27
2023-01-20T04:17:18.102Z,51.88
2023-01-20T04:18:18.104Z,49.79
2023-01-20T04:19:18.101Z,52.37
2023-01-20T04:20:18.074Z,50.27
2023-01-20T04:21:18.063Z,51.40
2023-01-20T04:22:18.054Z,52.21
2023-01-20T04:23:18.075Z,49.31
2023-01-20T04:24:18.011Z,51.08
2023-01-20T04:25:18.013Z,48.98
2023-01-20T04:26:18.024Z,48.50
2023-01-20T04:27:17.980Z,47.70
2023-01-20T04:28:17.991Z,47.21
2023-01-20T04:29:17.963Z,48.98
2023-01-20T04:30:18.071Z,49.95
2023-01-20T04:31:29.538Z,50.92
2023-01-20T04:32:18.929Z,49.95
2023-01-20T04:33:17.903Z,51.56
2023-01-20T04:34:17.884Z,51.40
2023-01-20T04:35:17.871Z,49.79
2023-01-20T04:36:17.863Z,50.11
2023-01-20T04:37:17.849Z,50.60
2023-01-20T04:38:17.875Z,49.95
2023-01-20T04:39:17.811Z,49.31
2023-01-20T04:40:17.806Z,53.66
2023-01-20T04:41:17.794Z,50.27
2023-01-20T04:42:17.806Z,51.08
2023-01-20T04:43:17.791Z,50.27
2023-01-20T04:44:17.777Z,49.79
2023-01-20T04:45:17.905Z,50.11
2023-01-20T04:46:17.746Z,51.72
2023-01-20T04:47:17.722Z,50.76
2023-01-20T04:48:17.717Z,49.15
2023-01-20T04:49:17.686Z,49.79
2023-01-20T04:50:17.694Z,52.05
2023-01-20T04:51:17.660Z,49.47
2023-01-20T04:52:17.673Z,51.40
2023-01-20T04:53:17.643Z,50.60
2023-01-20T04:54:17.630Z,49.79
2023-01-20T04:55:17.847Z,49.63
2023-01-20T04:56:17.615Z,50.27
2023-01-20T04:57:17.609Z,49.47
2023-01-20T04:58:17.580Z,56.56
2023-01-20T04:59:17.582Z,54.79
2023-01-20T05:00:17.552Z,56.56
2023-01-20T05:01:17.595Z,51.72
2023-01-20T05:02:17.629Z,55.43
2023-01-20T05:03:17.543Z,49.79
2023-01-20T05:04:17.520Z,51.24
2023-01-20T05:05:17.919Z,50.11
2023-01-20T05:06:17.473Z,51.72
2023-01-20T05:07:17.470Z,51.24
2023-01-20T05:08:17.457Z,49.63
2023-01-20T05:09:17.441Z,51.40
2023-01-20T05:10:17.442Z,56.88
2023-01-20T05:11:17.422Z,51.24
2023-01-20T05:12:17.393Z,52.21
2023-01-20T05:13:17.401Z,50.11
2023-01-20T05:14:17.371Z,49.95
2023-01-20T05:15:17.533Z,57.20
2023-01-20T05:16:17.396Z,50.60
2023-01-20T05:17:17.352Z,51.72
2023-01-20T05:18:17.317Z,55.11
2023-01-20T05:19:17.314Z,56.72
2023-01-20T05:20:17.272Z,57.85
2023-01-20T05:21:17.273Z,55.43
2023-01-20T05:22:17.255Z,52.21
2023-01-20T05:23:17.270Z,51.24
2023-01-20T05:24:17.253Z,51.24
2023-01-20T05:25:17.340Z,51.24
2023-01-20T05:26:17.219Z,52.21
2023-01-20T05:27:17.204Z,52.69
2023-01-20T05:28:17.193Z,52.53
2023-01-20T05:29:17.192Z,53.82
2023-01-20T05:30:17.153Z,53.01
2023-01-20T05:31:17.250Z,53.82
2023-01-20T05:32:17.134Z,55.27
2023-01-20T05:33:17.155Z,53.01
2023-01-20T05:34:17.130Z,55.75
2023-01-20T05:35:17.416Z,54.95
2023-01-20T05:36:17.087Z,56.40
2023-01-20T05:37:17.058Z,51.88
2023-01-20T05:38:17.059Z,50.43
2023-01-20T05:39:17.059Z,50.60
2023-01-20T05:40:17.044Z,55.75
2023-01-20T05:41:17.016Z,51.40
2023-01-20T05:42:16.997Z,52.85
2023-01-20T05:43:16.993Z,51.08
2023-01-20T05:44:16.964Z,58.01
2023-01-20T05:45:17.437Z,51.08
2023-01-20T05:46:17.005Z,50.92
2023-01-20T05:47:16.943Z,50.27
2023-01-20T05:48:16.942Z,50.92
2023-01-20T05:49:16.898Z,51.40
2023-01-20T05:50:16.895Z,59.14
2023-01-20T05:51:16.882Z,52.05
2023-01-20T05:52:16.874Z,51.40
2023-01-20T05:53:16.892Z,52.37
2023-01-20T05:54:16.842Z,51.40
2023-01-20T05:55:17.025Z,50.11
2023-01-20T05:56:16.811Z,54.95
2023-01-20T05:57:16.792Z,51.88
2023-01-20T05:58:16.809Z,50.27
2023-01-20T05:59:16.764Z,60.10
2023-01-20T06:00:16.793Z,51.56
2023-01-20T06:01:16.775Z,52.37
2023-01-20T06:02:16.723Z,53.82
2023-01-20T06:03:16.756Z,51.08
2023-01-20T06:04:16.711Z,50.92
2023-01-20T06:05:17.151Z,56.40
2023-01-20T06:06:16.683Z,52.05
2023-01-20T06:07:16.696Z,58.65
2023-01-20T06:08:16.687Z,57.04
2023-01-20T06:09:16.633Z,55.91
2023-01-20T06:10:16.644Z,50.27
2023-01-20T06:11:16.622Z,53.33
2023-01-20T06:12:16.600Z,52.05
2023-01-20T06:13:16.608Z,50.60
2023-01-20T06:14:16.610Z,52.37
2023-01-20T06:15:16.859Z,51.88
2023-01-20T06:16:16.618Z,53.82
2023-01-20T06:17:16.557Z,51.40
2023-01-20T06:18:16.542Z,50.92
2023-01-20T06:19:16.508Z,51.08
2023-01-20T06:20:16.504Z,50.27
2023-01-20T06:21:16.481Z,51.08
2023-01-20T06:22:16.496Z,50.27
2023-01-20T06:23:16.473Z,51.08
2023-01-20T06:24:16.452Z,58.49
2023-01-20T06:25:16.722Z,54.79
2023-01-20T06:26:16.461Z,51.72
2023-01-20T06:27:16.423Z,49.95
2023-01-20T06:28:16.412Z,54.79
2023-01-20T06:29:16.424Z,50.27
2023-01-20T06:30:16.378Z,50.92
2023-01-20T06:31:16.606Z,52.85
2023-01-20T06:32:16.366Z,51.56
2023-01-20T06:33:16.348Z,51.88
2023-01-20T06:34:16.342Z,50.11
2023-01-20T06:35:16.700Z,56.40
2023-01-20T06:36:16.292Z,50.60
2023-01-20T06:37:16.275Z,54.95
2023-01-20T06:38:16.284Z,51.40
2023-01-20T06:39:16.245Z,51.88
2023-01-20T06:40:16.252Z,57.20
2023-01-20T06:41:16.247Z,54.46
2023-01-20T06:42:16.226Z,53.50
2023-01-20T06:43:16.225Z,56.40
2023-01-20T06:44:16.192Z,53.01
2023-01-20T06:45:16.502Z,54.62
2023-01-20T06:46:16.248Z,53.01
2023-01-20T06:47:16.144Z,53.01
2023-01-20T06:48:16.175Z,52.05
2023-01-20T06:49:16.116Z,57.36
2023-01-20T06:50:16.112Z,50.11
2023-01-20T06:51:16.098Z,49.79
2023-01-20T06:52:16.121Z,51.40
2023-01-20T06:53:16.114Z,53.98
2023-01-20T06:54:16.067Z,56.56
2023-01-20T06:55:16.315Z,56.88
2023-01-20T06:56:16.060Z,55.75
2023-01-20T06:57:16.035Z,54.30
2023-01-20T06:58:16.024Z,55.27
2023-01-20T06:59:15.992Z,55.91
2023-01-20T07:00:16.000Z,61.71
2023-01-20T07:01:16.066Z,54.62
2023-01-20T07:02:16.095Z,54.95
2023-01-20T07:03:15.957Z,56.07
2023-01-20T07:04:15.935Z,58.01
2023-01-20T07:05:16.258Z,54.30
2023-01-20T07:06:15.954Z,53.66
2023-01-20T07:07:15.894Z,52.37
2023-01-20T07:08:15.894Z,52.69
2023-01-20T07:09:15.867Z,52.69
2023-01-20T07:10:15.856Z,51.40
2023-01-20T07:11:15.836Z,51.72
2023-01-20T07:12:15.855Z,55.59
2023-01-20T07:13:15.875Z,56.07
2023-01-20T07:14:15.816Z,53.17
2023-01-20T07:15:16.010Z,51.56
2023-01-20T07:16:16.172Z,53.17
2023-01-20T07:17:15.768Z,52.69
2023-01-20T07:18:15.759Z,53.17
2023-01-20T07:19:15.726Z,55.91
2023-01-20T07:20:15.724Z,52.37
2023-01-20T07:21:15.732Z,51.72
2023-01-20T07:22:15.695Z,53.33
2023-01-20T07:23:15.695Z,56.07
2023-01-20T07:24:15.665Z,50.92
2023-01-20T07:25:15.952Z,53.01
2023-01-20T07:26:15.634Z,52.69
2023-01-20T07:27:15.645Z,54.62
2023-01-20T07:28:15.626Z,55.11
2023-01-20T07:29:17.865Z,53.98
2023-01-20T07:30:15.607Z,52.85
2023-01-20T07:31:15.602Z,54.14
2023-01-20T07:32:15.580Z,51.56
2023-01-20T07:33:15.546Z,53.50
2023-01-20T07:34:15.559Z,51.72
2023-01-20T07:35:15.837Z,52.21
2023-01-20T07:36:15.539Z,51.40
2023-01-20T07:37:15.507Z,52.21
2023-01-20T07:38:15.508Z,50.76
2023-01-20T07:39:15.512Z,51.56
2023-01-20T07:40:15.455Z,51.40
2023-01-20T07:41:15.447Z,51.40
2023-01-20T07:42:15.435Z,56.24
2023-01-20T07:43:15.412Z,52.85
2023-01-20T07:44:15.409Z,51.08
2023-01-20T07:45:15.666Z,51.88
2023-01-20T07:46:15.396Z,50.76
2023-01-20T07:47:15.368Z,51.72
2023-01-20T07:48:15.359Z,50.92
2023-01-20T07:49:15.384Z,51.40
2023-01-20T07:50:15.336Z,49.95
2023-01-20T07:51:15.350Z,50.92
2023-01-20T07:52:15.299Z,51.88
2023-01-20T07:53:15.303Z,49.31
2023-01-20T07:54:15.295Z,50.92
2023-01-20T07:55:15.445Z,52.05
2023-01-20T07:56:15.281Z,49.63
2023-01-20T07:57:15.236Z,50.11
2023-01-20T07:58:15.229Z,50.76
2023-01-20T07:59:15.204Z,52.37
2023-01-20T08:00:15.209Z,51.40
2023-01-20T08:01:15.303Z,52.05
2023-01-20T08:02:15.168Z,50.76
2023-01-20T08:03:15.175Z,55.75
2023-01-20T08:04:15.186Z,52.37
2023-01-20T08:05:15.427Z,51.24
2023-01-20T08:06:15.154Z,50.76
2023-01-20T08:07:15.141Z,49.79
2023-01-20T08:08:15.100Z,51.24
2023-01-20T08:09:15.075Z,49.95
2023-01-20T08:10:15.072Z,50.76
2023-01-20T08:11:15.073Z,52.05
2023-01-20T08:12:15.045Z,50.76
2023-01-20T08:13:15.040Z,50.76
2023-01-20T08:14:15.034Z,50.60
2023-01-20T08:15:15.144Z,51.56
2023-01-20T08:16:15.034Z,51.08
2023-01-20T08:17:14.967Z,50.43
2023-01-20T08:18:14.969Z,51.72
2023-01-20T08:19:14.967Z,50.60
2023-01-20T08:20:14.948Z,50.92
2023-01-20T08:21:14.948Z,53.66
2023-01-20T08:22:14.909Z,62.04
2023-01-20T08:23:14.921Z,51.88
2023-01-20T08:24:14.888Z,50.92
2023-01-20T08:25:15.048Z,52.21
2023-01-20T08:26:14.869Z,50.92
2023-01-20T08:27:14.865Z,51.56
2023-01-20T08:28:14.830Z,51.88
2023-01-20T08:29:14.816Z,58.33
2023-01-20T08:30:14.827Z,51.72
2023-01-20T08:31:14.983Z,51.88
2023-01-20T08:32:14.778Z,53.17
2023-01-20T08:33:14.778Z,52.05
2023-01-20T08:35:27.235Z,51.72
2023-01-20T08:36:24.568Z,52.05
2023-01-20T08:37:27.201Z,50.27
2023-01-20T08:38:24.533Z,54.30
2023-01-20T08:39:24.530Z,50.11
2023-01-20T08:40:24.509Z,49.47
2023-01-20T08:41:24.567Z,67.68
2023-01-20T08:42:24.491Z,59.46
2023-01-20T08:43:24.476Z,50.27
2023-01-20T08:44:24.528Z,57.85
2023-01-20T08:45:24.463Z,52.37
2023-01-20T08:46:24.497Z,55.91
2023-01-20T08:47:24.459Z,51.40
2023-01-20T08:48:24.433Z,50.76
2023-01-20T08:49:24.481Z,51.88
2023-01-20T08:50:24.382Z,51.88
2023-01-20T08:51:24.410Z,57.04
2023-01-20T08:52:24.362Z,55.59
2023-01-20T08:53:24.347Z,62.52
2023-01-20T08:54:24.329Z,65.42
2023-01-20T08:55:24.323Z,68.32
2023-01-20T08:56:24.349Z,72.83
2023-01-20T08:57:24.302Z,64.78
2023-01-20T08:58:25.480Z,69.29
2023-01-20T08:59:24.292Z,74.77
2023-01-20T09:00:24.395Z,73.64
2023-01-20T09:01:24.279Z,69.45
2023-01-20T09:02:24.280Z,69.29
2023-01-20T09:03:24.227Z,63.00
2023-01-20T09:04:24.230Z,67.35
2023-01-20T09:05:24.207Z,66.23
2023-01-20T09:06:24.183Z,68.16
2023-01-20T09:07:24.368Z,75.73
2023-01-20T09:08:24.139Z,67.03
2023-01-20T09:09:24.154Z,67.84
2023-01-20T09:10:24.157Z,67.19
2023-01-20T09:11:24.159Z,51.24
2023-01-20T09:12:24.114Z,51.08
2023-01-20T09:13:24.088Z,55.91
2023-01-20T09:14:24.084Z,51.72
2023-01-20T09:15:25.570Z,49.95
2023-01-20T09:16:24.068Z,54.79
2023-01-20T09:17:24.069Z,50.60
2023-01-20T09:18:24.036Z,51.24
2023-01-20T09:19:24.033Z,51.88
2023-01-20T09:20:24.003Z,50.43
2023-01-20T09:21:24.013Z,58.33
2023-01-20T09:22:23.998Z,54.14
2023-01-20T09:23:23.965Z,54.30
2023-01-20T09:24:23.955Z,53.82
2023-01-20T09:25:23.945Z,49.79
2023-01-20T09:26:35.373Z,52.05
2023-01-20T09:27:24.942Z,65.74
2023-01-20T09:28:23.925Z,51.56
2023-01-20T09:29:23.917Z,49.31
2023-01-20T09:30:23.874Z,52.69
2023-01-20T09:31:23.959Z,53.66
2023-01-20T09:32:23.863Z,57.36
2023-01-20T09:33:23.845Z,50.11
2023-01-20T09:34:23.823Z,49.79
2023-01-20T09:35:23.940Z,50.76
2023-01-20T09:36:23.815Z,53.01
2023-01-20T09:37:23.809Z,53.33
2023-01-20T09:38:23.784Z,63.33
2023-01-20T09:39:23.789Z,55.43
2023-01-20T09:40:23.825Z,51.72
2023-01-20T09:41:23.782Z,51.88
2023-01-20T09:42:23.767Z,51.24
2023-01-20T09:43:23.712Z,51.24
2023-01-20T09:44:23.716Z,50.11
2023-01-20T09:45:23.685Z,49.63
2023-01-20T09:46:23.686Z,50.11
2023-01-20T09:47:23.662Z,63.49
2023-01-20T09:48:23.617Z,52.05
2023-01-20T09:49:23.632Z,50.11
2023-01-20T09:50:23.605Z,49.31
2023-01-20T09:51:23.615Z,62.04
2023-01-20T09:52:23.609Z,52.37
2023-01-20T09:53:23.571Z,48.98
2023-01-20T09:54:23.562Z,49.63
2023-01-20T09:55:23.545Z,49.95
2023-01-20T09:56:23.531Z,59.94
2023-01-20T09:57:23.547Z,54.79
2023-01-20T09:58:23.510Z,59.62
2023-01-20T09:59:23.497Z,54.62
2023-01-20T10:00:23.483Z,56.72
2023-01-20T10:01:23.474Z,51.88
2023-01-20T10:02:23.476Z,53.17
2023-01-20T10:03:23.469Z,51.88
2023-01-20T10:04:23.423Z,52.69
2023-01-20T10:05:23.472Z,52.05
2023-01-20T10:06:23.401Z,53.66
2023-01-20T10:07:23.407Z,55.59
2023-01-20T10:08:23.382Z,51.24
2023-01-20T10:09:23.371Z,53.82
2023-01-20T10:10:23.354Z,55.91
2023-01-20T10:11:23.421Z,55.11
2023-01-20T10:12:23.335Z,54.46
2023-01-20T10:13:23.336Z,54.62
2023-01-20T10:14:23.306Z,53.82
2023-01-20T10:15:23.296Z,54.62
2023-01-20T10:16:23.323Z,56.07
2023-01-20T10:17:23.262Z,57.85
2023-01-20T10:18:23.252Z,53.82
2023-01-20T10:19:23.248Z,50.11
2023-01-20T10:20:23.227Z,50.76
2023-01-20T10:21:23.220Z,52.85
2023-01-20T10:22:23.208Z,48.98
2023-01-20T10:23:23.199Z,49.63
2023-01-20T10:24:23.160Z,49.31
2023-01-20T10:25:23.161Z,49.79
2023-01-20T10:26:23.164Z,50.27
2023-01-20T10:27:23.128Z,52.69
2023-01-20T10:28:23.120Z,48.98
2023-01-20T10:29:23.106Z,51.40
2023-01-20T10:30:23.156Z,51.08
2023-01-20T10:31:23.112Z,61.87
2023-01-20T10:32:23.061Z,65.10
2023-01-20T10:33:23.071Z,59.62
2023-01-20T10:34:23.030Z,55.59
2023-01-20T10:35:23.021Z,66.71
2023-01-20T10:36:23.012Z,49.79
2023-01-20T10:37:22.990Z,50.76
2023-01-20T10:38:22.991Z,56.07
2023-01-20T10:39:22.977Z,57.36
2023-01-20T10:40:22.999Z,50.27
2023-01-20T10:41:22.944Z,71.70
2023-01-20T10:42:22.923Z,57.85
2023-01-20T10:43:22.933Z,71.54
2023-01-20T10:44:22.907Z,62.04
2023-01-20T10:45:22.892Z,69.61
2023-01-20T10:46:22.876Z,71.38
2023-01-20T10:47:22.860Z,83.31
2023-01-20T10:48:22.864Z,67.19
2023-01-20T10:49:22.834Z,68.64
2023-01-20T10:50:22.823Z,69.93
2023-01-20T10:51:22.841Z,70.58
2023-01-20T10:52:22.794Z,68.48
2023-01-20T10:53:22.814Z,78.63
2023-01-20T10:54:22.783Z,68.96
2023-01-20T10:55:22.762Z,73.32
2023-01-20T10:56:22.773Z,66.23
2023-01-20T10:57:22.742Z,53.82
2023-01-20T10:58:22.723Z,50.11
2023-01-20T10:59:22.711Z,60.10
2023-01-20T11:00:22.686Z,56.56
2023-01-20T11:01:22.746Z,50.92
2023-01-20T11:02:22.683Z,50.11
2023-01-20T11:03:22.707Z,53.01
2023-01-20T11:04:22.631Z,51.08
2023-01-20T11:05:22.629Z,49.95
2023-01-20T11:06:22.699Z,51.40
2023-01-20T11:07:22.609Z,49.63
2023-01-20T11:08:22.599Z,49.79
2023-01-20T11:09:22.575Z,49.15
2023-01-20T11:10:22.554Z,49.15
2023-01-20T11:11:22.559Z,51.08
2023-01-20T11:12:22.555Z,68.16
2023-01-20T11:13:22.533Z,51.56
2023-01-20T11:14:22.696Z,50.92
2023-01-20T11:15:22.483Z,49.79
2023-01-20T11:16:22.519Z,51.88
2023-01-20T11:17:22.459Z,51.72
2023-01-20T11:18:22.473Z,49.15
2023-01-20T11:19:22.432Z,51.56
2023-01-20T11:20:22.424Z,48.98
2023-01-20T11:21:22.413Z,53.17
2023-01-20T11:22:22.414Z,51.08
2023-01-20T11:23:22.394Z,51.40
2023-01-20T11:24:22.394Z,50.76
2023-01-20T11:25:22.362Z,51.72
2023-01-20T11:26:22.419Z,49.31
2023-01-20T11:27:22.392Z,49.31
2023-01-20T11:28:22.335Z,48.34
2023-01-20T11:29:22.347Z,48.98
2023-01-20T11:30:22.291Z,48.82
2023-01-20T11:31:22.432Z,49.15
2023-01-20T11:32:24.341Z,49.95
2023-01-20T11:33:22.276Z,50.76
2023-01-20T11:34:22.292Z,50.11
2023-01-20T11:35:22.227Z,55.43
2023-01-20T11:36:22.232Z,61.55
2023-01-20T11:37:22.197Z,56.40
2023-01-20T11:38:22.188Z,60.42
2023-01-20T11:39:22.187Z,49.63
2023-01-20T11:40:22.160Z,50.92
2023-01-20T11:41:22.220Z,55.43
2023-01-20T11:42:22.140Z,60.75
2023-01-20T11:43:22.126Z,50.27
2023-01-20T11:44:22.126Z,58.33
2023-01-20T11:45:22.108Z,48.82
2023-01-20T11:46:22.120Z,52.21
2023-01-20T11:47:22.074Z,64.45
2023-01-20T11:48:22.076Z,54.95
2023-01-20T11:49:22.108Z,50.43
2023-01-20T11:50:22.041Z,53.82
2023-01-20T11:51:22.139Z,52.37
2023-01-20T11:52:22.004Z,64.13
2023-01-20T11:53:22.034Z,54.95
2023-01-20T11:54:22.000Z,66.06
2023-01-20T11:55:21.969Z,56.24
2023-01-20T11:56:22.048Z,60.10
2023-01-20T11:57:21.932Z,66.87
2023-01-20T11:58:21.930Z,68.64
2023-01-20T11:59:21.926Z,55.91
2023-01-20T12:00:21.922Z,61.71
2023-01-20T12:01:21.912Z,63.65
2023-01-20T12:02:21.887Z,62.68
2023-01-20T12:03:21.875Z,63.81
2023-01-20T12:04:21.871Z,61.87
2023-01-20T12:05:21.854Z,60.91
2023-01-20T12:06:21.836Z,53.33
2023-01-20T12:07:21.797Z,63.16
2023-01-20T12:08:21.839Z,57.36
2023-01-20T12:09:21.796Z,64.45
2023-01-20T12:10:21.773Z,58.65
2023-01-20T12:11:21.783Z,64.29
2023-01-20T12:12:21.757Z,57.52
2023-01-20T12:13:21.723Z,57.36
2023-01-20T12:14:21.783Z,63.65
2023-01-20T12:15:21.701Z,58.49
2023-01-20T12:16:21.723Z,58.97
2023-01-20T12:17:21.672Z,53.66
2023-01-20T12:18:21.664Z,65.26
2023-01-20T12:19:21.684Z,65.58
2023-01-20T12:20:21.645Z,58.33
2023-01-20T12:21:21.655Z,59.62
2023-01-20T12:22:21.604Z,65.74
2023-01-20T12:23:21.592Z,54.95
2023-01-20T12:24:21.585Z,61.87
2023-01-20T12:25:21.557Z,54.14
2023-01-20T12:26:21.592Z,64.94
2023-01-20T12:27:21.550Z,72.35
2023-01-20T12:28:21.535Z,58.17
2023-01-20T12:29:21.544Z,59.14
2023-01-20T12:30:23.069Z,58.01
2023-01-20T12:31:21.635Z,57.52
2023-01-20T12:32:21.485Z,69.29
2023-01-20T12:33:21.455Z,60.10
2023-01-20T12:34:21.475Z,58.17
2023-01-20T12:35:21.435Z,72.51
2023-01-20T12:36:21.439Z,56.72
2023-01-20T12:37:21.410Z,55.11
2023-01-20T12:38:21.426Z,55.59
2023-01-20T12:39:21.410Z,57.04
2023-01-20T12:40:21.373Z,54.14
2023-01-20T12:41:21.378Z,54.95
2023-01-20T12:42:21.346Z,55.43
2023-01-20T12:43:21.335Z,58.81
2023-01-20T12:44:21.337Z,57.85
2023-01-20T12:45:21.318Z,54.62
2023-01-20T12:46:21.350Z,58.81
2023-01-20T12:47:21.280Z,48.98
2023-01-20T12:48:21.275Z,56.56
2023-01-20T12:49:21.282Z,62.52
2023-01-20T12:50:21.248Z,58.97
2023-01-20T12:51:21.324Z,57.85
2023-01-20T12:52:21.214Z,54.95
2023-01-20T12:53:21.217Z,54.79
2023-01-20T12:54:21.240Z,57.04